الصفحة الرئيسية
METAR-TAF:

METAR-TAF

مطار :

طرابلس, ليبيا

مطار معيتيقة الدولي

دائرة عرض: 32-54N, خط طول: 13-17E, ارتفاع: 11 متر

مراقبة الطقس الحالي

تاريخ ووقت الإصدار 4ساعات و 8 دقيقة قبل الساعة 22:55UTC
ريح 4 عقدة من الشرق/الجنوب الشرقي
درجة الحرارة 17°درجة مئوية
الرطوبة 77%
ضغط 1019 hPa
الرؤية: 7000 متر
سماء صافية

METAR: HLLM 212255Z 11004KT 7000 SKC 17/13 Q1019

زمن: 05:03 (03:03 UTC)

توقعات

تاريخ ووقت الإصدار 10ساعات و 3 دقيقة قبل الساعة 17:00UTC
التوقعات صالحة من21 الساعة 18 UTC إلى 22 الساعة 18 UTC
ريح 14 عقدة من الشرق
الرؤية: 8000 متر
نظرية الاحتمالات 30% :
مؤقت
من 12 الساعة 02 UTC إلى 12 الساعة 06 UTC
الرؤية: 3000 متر
غشاء

TAF: HLLM 211700Z 2118/2218 09014KT 8000 NSC PROB30 TEMPO 1202/1206 3000 BR

أرصاد الطقس والتوقعات من أكثر من 4000 مطار (تقارير الطقس للمطار METAR والتنبؤ بالطقس بالمطارTAF).

المحطات المتاحة هي النقط الصفراء والحمراء على الخريطة.

حرك المؤشر فوق النقطة لمعرفة اسم المحطة.

ثم انقر لمعرفة أرصاد وتوقعات الطقس.

لتغيير الخارطة: اضغط على الأزرار الخضراء مع رمز الصليب الأسود للتكبير. على الزر الأخضر مع شرطة للتصغير، أو على الأسهم الخضراء للخرائط المجاورة.


METAR-TAF: